createdAt,value
2019-01-05T00:00:35.033Z,5.24
2019-01-05T00:01:34.181Z,5.31
2019-01-05T00:02:32.779Z,5.46
2019-01-05T00:03:31.459Z,5.42
2019-01-05T00:04:29.978Z,5.33
2019-01-05T00:05:28.457Z,5.3
2019-01-05T00:06:26.997Z,5.35
2019-01-05T00:07:25.535Z,5.4
2019-01-05T00:08:24.111Z,5.4
2019-01-05T00:09:22.682Z,5.4
2019-01-05T00:10:22.060Z,5.4
2019-01-05T00:11:20.612Z,5.53
2019-01-05T00:12:19.172Z,5.49
2019-01-05T00:13:17.700Z,5.45
2019-01-05T00:14:16.267Z,5.54
2019-01-05T00:15:15.446Z,5.54
2019-01-05T00:16:13.429Z,5.53
2019-01-05T00:17:12.001Z,5.39
2019-01-05T00:18:10.669Z,5.48
2019-01-05T00:19:09.338Z,5.38
2019-01-05T00:20:07.847Z,5.46
2019-01-05T00:21:06.519Z,5.51
2019-01-05T00:22:05.408Z,5.57
2019-01-05T00:23:03.985Z,5.54
2019-01-05T00:24:02.702Z,5.57
2019-01-05T00:25:01.329Z,5.45
2019-01-05T00:25:59.908Z,5.48
2019-01-05T00:26:58.641Z,5.51
2019-01-05T00:27:57.288Z,5.56
2019-01-05T00:28:55.825Z,5.56
2019-01-05T00:29:54.366Z,5.54
2019-01-05T00:30:53.189Z,5.48
2019-01-05T00:31:51.742Z,5.51
2019-01-05T00:32:50.276Z,5.46
2019-01-05T00:33:49.200Z,5.48
2019-01-05T00:34:47.768Z,5.49
2019-01-05T00:35:46.340Z,5.58
2019-01-05T00:36:44.970Z,5.54
2019-01-05T00:37:43.516Z,5.54
2019-01-05T00:38:42.026Z,5.57
2019-01-05T00:39:40.575Z,5.58
2019-01-05T00:40:39.105Z,5.56
2019-01-05T00:41:37.619Z,5.53
2019-01-05T00:42:36.211Z,5.58
2019-01-05T00:43:34.897Z,5.58
2019-01-05T00:44:33.469Z,5.63
2019-01-05T00:45:32.039Z,5.65
2019-01-05T00:46:30.864Z,5.6
2019-01-05T00:47:29.375Z,5.63
2019-01-05T00:48:27.890Z,5.72
2019-01-05T00:49:26.584Z,5.67
2019-01-05T00:50:25.165Z,5.71
2019-01-05T00:51:23.688Z,5.76
2019-01-05T00:52:22.246Z,5.61
2019-01-05T00:53:20.750Z,5.67
2019-01-05T00:54:19.406Z,5.65
2019-01-05T00:55:17.936Z,5.64
2019-01-05T00:56:16.635Z,5.83
2019-01-05T00:57:15.330Z,5.72
2019-01-05T00:58:13.877Z,5.72
2019-01-05T00:59:12.597Z,5.78
2019-01-05T01:00:11.273Z,5.89
2019-01-05T01:01:10.060Z,5.81
2019-01-05T01:02:08.740Z,5.86
2019-01-05T01:03:07.362Z,5.86
2019-01-05T01:04:05.925Z,5.85
2019-01-05T01:05:04.732Z,5.71
2019-01-05T01:06:03.471Z,5.65
2019-01-05T01:07:01.985Z,5.71
2019-01-05T01:08:00.543Z,5.68
2019-01-05T01:08:59.079Z,5.49
2019-01-05T01:09:57.634Z,5.54
2019-01-05T01:10:56.395Z,5.64
2019-01-05T01:11:55.299Z,5.72
2019-01-05T01:12:53.838Z,5.58
2019-01-05T01:13:52.371Z,5.53
2019-01-05T01:14:51.212Z,5.45
2019-01-05T01:15:49.822Z,5.53
2019-01-05T01:16:48.538Z,5.48
2019-01-05T01:17:47.272Z,5.46
2019-01-05T01:18:45.786Z,5.4
2019-01-05T01:19:44.458Z,5.46
2019-01-05T01:20:43.066Z,5.45
2019-01-05T01:21:41.595Z,5.49
2019-01-05T01:22:40.147Z,5.45
2019-01-05T01:23:38.811Z,5.39
2019-01-05T01:24:37.337Z,5.54
2019-01-05T01:25:36.019Z,5.48
2019-01-05T01:26:34.771Z,5.48
2019-01-05T01:27:33.371Z,5.42
2019-01-05T01:28:31.906Z,5.53
2019-01-05T01:29:30.625Z,5.6
2019-01-05T01:30:29.294Z,5.54
2019-01-05T01:31:28.615Z,5.6
2019-01-05T01:34:13.071Z,5.67
2019-01-05T01:35:11.587Z,5.82
2019-01-05T01:36:10.139Z,5.72
2019-01-05T01:37:08.981Z,5.65
2019-01-05T01:38:07.560Z,5.71
2019-01-05T01:39:06.286Z,5.72
2019-01-05T01:40:04.822Z,5.65
2019-01-05T01:41:03.358Z,5.65
2019-01-05T01:42:01.887Z,5.67
2019-01-05T01:43:00.489Z,5.6
2019-01-05T01:43:59.141Z,5.53
2019-01-05T01:44:57.668Z,5.58
2019-01-05T01:45:56.223Z,5.54
2019-01-05T01:46:55.105Z,5.56
2019-01-05T01:47:53.637Z,5.67
2019-01-05T01:48:52.181Z,5.65
2019-01-05T01:49:50.860Z,5.67
2019-01-05T01:50:49.402Z,5.65
2019-01-05T01:51:47.967Z,5.67
2019-01-05T01:52:46.492Z,5.64
2019-01-05T01:53:45.038Z,5.61
2019-01-05T01:54:43.548Z,5.56
2019-01-05T01:55:42.202Z,5.58
2019-01-05T01:56:40.898Z,5.6
2019-01-05T01:57:39.597Z,5.61
2019-01-05T01:58:38.350Z,5.76
2019-01-05T01:59:37.009Z,5.67
2019-01-05T02:00:35.538Z,5.75
2019-01-05T02:01:34.079Z,5.83
2019-01-05T02:02:32.671Z,5.75
2019-01-05T02:03:31.256Z,5.63
2019-01-05T02:04:29.816Z,5.67
2019-01-05T02:05:28.477Z,5.61
2019-01-05T02:06:27.089Z,5.75
2019-01-05T02:07:25.610Z,5.65
2019-01-05T02:08:24.160Z,5.58
2019-01-05T02:09:23.031Z,5.61
2019-01-05T02:10:21.581Z,5.72
2019-01-05T02:11:20.086Z,5.63
2019-01-05T02:12:19.035Z,5.74
2019-01-05T02:13:17.564Z,5.57
2019-01-05T02:14:16.084Z,5.64
2019-01-05T02:15:15.105Z,5.71
2019-01-05T02:16:13.644Z,5.63
2019-01-05T02:17:12.199Z,5.63
2019-01-05T02:18:10.858Z,5.58
2019-01-05T02:19:09.378Z,5.53
2019-01-05T02:20:07.929Z,5.38
2019-01-05T02:21:06.490Z,5.48
2019-01-05T02:22:05.036Z,5.53
2019-01-05T02:23:03.691Z,5.48
2019-01-05T02:24:02.307Z,5.6
2019-01-05T02:25:00.906Z,5.61
2019-01-05T02:25:59.505Z,5.57
2019-01-05T02:26:58.026Z,5.67
2019-01-05T02:27:56.819Z,5.71
2019-01-05T02:28:55.335Z,5.67
2019-01-05T02:29:53.848Z,5.67
2019-01-05T02:30:52.559Z,5.61
2019-01-05T02:31:51.108Z,5.51
2019-01-05T02:32:49.630Z,5.56
2019-01-05T02:33:48.172Z,5.65
2019-01-05T02:34:47.050Z,5.76
2019-01-05T02:35:45.543Z,5.63
2019-01-05T02:36:44.104Z,5.48
2019-01-05T02:37:42.976Z,5.46
2019-01-05T02:38:41.515Z,5.53
2019-01-05T02:39:40.060Z,5.63
2019-01-05T02:40:38.832Z,5.68
2019-01-05T02:41:37.383Z,5.57
2019-01-05T02:42:35.924Z,5.57
2019-01-05T02:43:34.672Z,5.63
2019-01-05T02:44:33.349Z,5.72
2019-01-05T02:45:31.874Z,5.65
2019-01-05T02:46:30.643Z,5.67
2019-01-05T02:47:29.297Z,5.65
2019-01-05T02:48:27.848Z,5.65
2019-01-05T02:49:26.398Z,5.53
2019-01-05T02:50:24.984Z,5.48
2019-01-05T02:51:23.520Z,5.54
2019-01-05T02:52:22.071Z,5.46
2019-01-05T02:53:20.786Z,5.46
2019-01-05T02:54:19.518Z,5.46
2019-01-05T02:55:18.195Z,5.54
2019-01-05T02:56:16.791Z,5.48
2019-01-05T02:57:15.440Z,5.45
2019-01-05T02:58:13.960Z,5.6
2019-01-05T02:59:12.505Z,5.57
2019-01-05T03:00:11.057Z,5.54
2019-01-05T03:01:09.600Z,5.56
2019-01-05T03:02:08.141Z,5.45
2019-01-05T03:03:06.658Z,5.51
2019-01-05T03:04:05.208Z,5.57
2019-01-05T03:05:03.745Z,5.56
2019-01-05T03:06:02.502Z,5.51
2019-01-05T03:07:01.338Z,5.53
2019-01-05T03:07:59.871Z,5.49
2019-01-05T03:08:58.532Z,5.45
2019-01-05T03:09:57.213Z,5.6
2019-01-05T03:10:55.764Z,5.49
2019-01-05T03:11:54.287Z,5.51
2019-01-05T03:12:52.877Z,5.45
2019-01-05T03:13:51.417Z,5.46
2019-01-05T03:14:49.942Z,5.49
2019-01-05T03:15:48.816Z,5.43
2019-01-05T03:16:47.410Z,5.43
2019-01-05T03:17:45.950Z,5.4
2019-01-05T03:18:44.683Z,5.35
2019-01-05T03:19:43.363Z,5.3
2019-01-05T03:20:41.891Z,5.33
2019-01-05T03:21:40.419Z,5.3
2019-01-05T03:22:38.967Z,5.33
2019-01-05T03:23:37.498Z,5.33
2019-01-05T03:24:36.061Z,5.27
2019-01-05T03:25:34.564Z,5.18
2019-01-05T03:26:33.208Z,5.33
2019-01-05T03:27:31.747Z,5.21
2019-01-05T03:28:30.369Z,5.3
2019-01-05T03:29:29.197Z,5.27
2019-01-05T03:30:27.704Z,5.3
2019-01-05T03:31:26.373Z,5.45
2019-01-05T03:32:25.051Z,5.45
2019-01-05T03:33:23.608Z,5.43
2019-01-05T03:34:22.128Z,5.39
2019-01-05T03:35:20.675Z,5.45
2019-01-05T03:36:19.238Z,5.43
2019-01-05T03:37:17.772Z,5.42
2019-01-05T03:38:16.454Z,5.6
2019-01-05T03:39:15.253Z,5.46
2019-01-05T03:40:13.801Z,5.53
2019-01-05T03:41:12.607Z,5.43
2019-01-05T03:42:11.213Z,5.42
2019-01-05T03:43:09.747Z,5.46
2019-01-05T03:44:08.265Z,5.58
2019-01-05T03:45:06.885Z,5.36
2019-01-05T03:46:05.421Z,5.43
2019-01-05T03:47:03.977Z,5.53
2019-01-05T03:48:02.687Z,5.51
2019-01-05T03:49:01.384Z,5.51
2019-01-05T03:49:59.996Z,5.53
2019-01-05T03:50:58.650Z,5.6
2019-01-05T03:51:57.411Z,5.61
2019-01-05T03:52:55.929Z,5.54
2019-01-05T03:53:54.488Z,5.42
2019-01-05T03:54:53.051Z,5.48
2019-01-05T03:55:52.232Z,5.54
2019-01-05T03:56:50.961Z,5.54
2019-01-05T03:57:49.479Z,5.45
2019-01-05T03:58:48.044Z,5.49
2019-01-05T03:59:46.572Z,5.54
2019-01-05T04:00:45.113Z,5.43
2019-01-05T04:01:44.613Z,5.39
2019-01-05T04:02:43.157Z,5.38
2019-01-05T04:03:41.662Z,5.39
2019-01-05T04:04:40.253Z,5.39
2019-01-05T04:05:38.946Z,5.46
2019-01-05T04:06:37.479Z,5.39
2019-01-05T04:07:36.026Z,5.31
2019-01-05T04:08:34.988Z,5.3
2019-01-05T04:11:15.275Z,5.27
2019-01-05T04:12:13.788Z,5.4
2019-01-05T04:13:12.502Z,5.38
2019-01-05T04:14:11.298Z,5.38
2019-01-05T04:15:09.833Z,5.38
2019-01-05T04:16:08.497Z,5.51
2019-01-05T04:17:07.173Z,5.54
2019-01-05T04:18:05.695Z,5.6
2019-01-05T04:19:04.232Z,5.58
2019-01-05T04:20:02.807Z,5.46
2019-01-05T04:21:01.316Z,5.48
2019-01-05T04:21:59.861Z,5.4
2019-01-05T04:22:58.547Z,5.33
2019-01-05T04:23:57.252Z,5.31
2019-01-05T04:24:55.817Z,5.42
2019-01-05T04:25:54.650Z,5.4
2019-01-05T04:26:53.245Z,5.4
2019-01-05T04:27:51.794Z,5.38
2019-01-05T04:28:50.348Z,5.38
2019-01-05T04:29:48.886Z,5.35
2019-01-05T04:30:47.459Z,5.45
2019-01-05T04:31:45.983Z,5.46
2019-01-05T04:32:44.622Z,5.4
2019-01-05T04:33:43.186Z,5.42
2019-01-05T04:34:41.747Z,5.31
2019-01-05T04:35:40.252Z,5.42
2019-01-05T04:36:38.956Z,5.36
2019-01-05T04:37:37.545Z,5.39
2019-01-05T04:38:36.231Z,5.21
2019-01-05T04:39:34.933Z,5.2
2019-01-05T04:40:33.487Z,5.21
2019-01-05T04:41:32.161Z,5.24
2019-01-05T04:42:30.685Z,5.28
2019-01-05T04:43:29.215Z,5.31
2019-01-05T04:44:27.750Z,5.27
2019-01-05T04:45:26.466Z,5.25
2019-01-05T04:46:25.309Z,5.17
2019-01-05T04:47:23.849Z,5.22
2019-01-05T04:48:22.519Z,5.12
2019-01-05T04:49:21.162Z,5.12
2019-01-05T04:50:19.681Z,5.12
2019-01-05T04:51:18.235Z,5.02
2019-01-05T04:52:17.086Z,5
2019-01-05T04:53:15.603Z,4.99
2019-01-05T04:54:14.188Z,4.94
2019-01-05T04:55:12.978Z,4.92
2019-01-05T04:56:11.553Z,4.91
2019-01-05T04:57:10.080Z,4.94
2019-01-05T04:58:08.824Z,4.82
2019-01-05T04:59:07.374Z,4.85
2019-01-05T05:00:05.945Z,4.7
2019-01-05T05:01:04.481Z,4.73
2019-01-05T05:02:03.011Z,4.85
2019-01-05T05:03:01.526Z,4.84
2019-01-05T05:04:00.066Z,4.77
2019-01-05T05:04:58.776Z,4.67
2019-01-05T05:05:57.473Z,4.69
2019-01-05T05:06:56.030Z,4.78
2019-01-05T05:07:55.170Z,4.72
2019-01-05T05:08:53.839Z,4.7
2019-01-05T05:09:52.411Z,4.73
2019-01-05T05:10:51.276Z,4.69
2019-01-05T05:11:49.844Z,4.75
2019-01-05T05:12:48.463Z,4.77
2019-01-05T05:13:47.059Z,4.72
2019-01-05T05:14:45.634Z,4.91
2019-01-05T05:15:44.161Z,4.97
2019-01-05T05:16:42.678Z,5
2019-01-05T05:17:41.207Z,4.94
2019-01-05T05:18:39.745Z,5
2019-01-05T05:19:38.283Z,4.99
2019-01-05T05:20:36.812Z,5.02
2019-01-05T05:21:35.403Z,4.99
2019-01-05T05:22:33.951Z,4.85
2019-01-05T05:23:32.675Z,4.96
2019-01-05T05:24:31.299Z,4.92
2019-01-05T05:25:29.866Z,4.91
2019-01-05T05:26:28.657Z,4.92
2019-01-05T05:29:08.959Z,4.78
2019-01-05T05:30:07.534Z,4.85
2019-01-05T05:31:06.052Z,4.86
2019-01-05T05:32:04.812Z,4.84
2019-01-05T05:33:03.370Z,4.8
2019-01-05T05:34:02.072Z,4.73
2019-01-05T05:35:00.644Z,4.75
2019-01-05T05:35:59.400Z,4.67
2019-01-05T05:36:57.933Z,4.77
2019-01-05T05:41:45.931Z,4.77
2019-01-05T05:42:44.507Z,4.73
2019-01-05T05:43:43.255Z,4.63
2019-01-05T05:44:41.773Z,4.63
2019-01-05T05:45:40.441Z,4.6
2019-01-05T05:46:39.119Z,4.62
2019-01-05T05:47:37.718Z,4.62
2019-01-05T05:48:36.255Z,4.65
2019-01-05T05:49:34.948Z,4.59
2019-01-05T05:50:33.523Z,4.59
2019-01-05T05:51:32.085Z,4.58
2019-01-05T05:52:30.930Z,4.59
2019-01-05T05:53:30.156Z,4.6
2019-01-05T05:54:29.120Z,4.6
2019-01-05T05:55:27.694Z,4.59
2019-01-05T05:56:26.272Z,4.52
2019-01-05T05:57:24.807Z,4.5
2019-01-05T05:58:23.346Z,4.55
2019-01-05T05:59:22.055Z,4.59
2019-01-05T06:00:20.710Z,4.66
2019-01-05T06:01:19.388Z,4.67
2019-01-05T06:02:17.938Z,4.73
2019-01-05T06:03:16.676Z,4.82
2019-01-05T06:04:15.484Z,4.96
2019-01-05T06:05:14.032Z,4.92
2019-01-05T06:06:12.761Z,4.8
2019-01-05T06:07:11.427Z,4.77
2019-01-05T06:08:09.982Z,4.84
2019-01-05T06:09:08.778Z,4.75
2019-01-05T06:10:07.418Z,4.73
2019-01-05T06:11:05.998Z,4.75
2019-01-05T06:12:04.578Z,4.75
2019-01-05T06:13:03.101Z,4.8
2019-01-05T06:14:01.657Z,4.77
2019-01-05T06:15:00.227Z,4.84
2019-01-05T06:15:58.910Z,4.96
2019-01-05T06:16:57.560Z,4.78
2019-01-05T06:17:57.026Z,4.77
2019-01-05T06:18:55.644Z,4.75
2019-01-05T06:19:54.314Z,4.92
2019-01-05T06:20:53.014Z,4.92
2019-01-05T06:21:51.586Z,4.99
2019-01-05T06:22:50.133Z,4.99
2019-01-05T06:23:48.731Z,4.99
2019-01-05T06:24:47.280Z,4.99
2019-01-05T06:27:27.550Z,4.89
2019-01-05T06:28:26.092Z,4.88
2019-01-05T06:29:25.075Z,4.75
2019-01-05T06:30:23.648Z,4.66
2019-01-05T06:31:22.156Z,4.66
2019-01-05T06:32:20.800Z,4.69
2019-01-05T06:33:19.721Z,4.84
2019-01-05T06:34:18.269Z,4.82
2019-01-05T06:35:17.035Z,4.92
2019-01-05T06:36:15.554Z,4.75
2019-01-05T06:37:14.101Z,4.75
2019-01-05T06:38:12.733Z,4.89
2019-01-05T06:39:11.369Z,4.89
2019-01-05T06:40:10.012Z,4.85
2019-01-05T06:41:08.674Z,4.73
2019-01-05T06:42:07.942Z,4.72
2019-01-05T06:43:06.633Z,4.73
2019-01-05T06:44:05.367Z,4.77
2019-01-05T06:45:03.945Z,4.59
2019-01-05T06:46:02.718Z,4.62
2019-01-05T06:47:01.428Z,4.62
2019-01-05T06:47:59.968Z,4.54
2019-01-05T06:48:58.460Z,4.52
2019-01-05T06:49:57.055Z,4.36
2019-01-05T06:50:55.576Z,4.37
2019-01-05T06:51:54.245Z,4.51
2019-01-05T06:52:52.973Z,4.48
2019-01-05T06:56:29.163Z,4.41
2019-01-05T06:57:27.715Z,4.45
2019-01-05T06:58:26.594Z,4.41
2019-01-05T06:59:26.627Z,4.4
2019-01-05T07:00:25.189Z,4.37
2019-01-05T07:01:23.781Z,4.48
2019-01-05T07:02:22.480Z,4.47
2019-01-05T07:03:21.363Z,4.29
2019-01-05T07:04:19.920Z,4.47
2019-01-05T07:05:18.590Z,4.34
2019-01-05T07:06:17.202Z,4.24
2019-01-05T07:07:15.733Z,4.23
2019-01-05T07:08:14.340Z,4.23
2019-01-05T07:09:12.999Z,4.23
2019-01-05T07:10:11.596Z,4.27
2019-01-05T07:11:10.269Z,4.29
2019-01-05T07:12:09.075Z,4.27
2019-01-05T07:13:07.666Z,4.36
2019-01-05T07:14:06.211Z,4.41
2019-01-05T07:15:04.822Z,4.5
2019-01-05T07:17:45.317Z,4.47
2019-01-05T07:20:25.585Z,4.42
2019-01-05T07:21:24.141Z,4.48
2019-01-05T07:22:22.866Z,4.32
2019-01-05T07:23:21.392Z,4.45
2019-01-05T07:24:19.912Z,4.37
2019-01-05T07:25:18.667Z,4.36
2019-01-05T07:26:17.365Z,4.48
2019-01-05T07:27:15.908Z,4.41
2019-01-05T07:28:14.748Z,4.42
2019-01-05T07:29:13.352Z,4.42
2019-01-05T07:30:11.951Z,4.5
2019-01-05T07:31:10.482Z,4.5
2019-01-05T07:32:09.104Z,4.45
2019-01-05T07:33:07.666Z,4.34
2019-01-05T07:34:06.241Z,4.41
2019-01-05T07:35:05.114Z,4.42
2019-01-05T07:36:03.731Z,4.34
2019-01-05T07:37:02.514Z,4.33
2019-01-05T07:38:01.052Z,4.33
2019-01-05T07:38:59.589Z,4.24
2019-01-05T07:39:58.094Z,4.29
2019-01-05T07:40:56.622Z,4.32
2019-01-05T07:41:55.163Z,4.36
2019-01-05T07:42:53.763Z,4.44
2019-01-05T07:45:46.009Z,4.41
2019-01-05T07:46:44.668Z,4.37
2019-01-05T07:47:43.254Z,4.33
2019-01-05T07:48:41.814Z,4.33
2019-01-05T07:49:40.357Z,4.24
2019-01-05T07:50:39.130Z,4.33
2019-01-05T07:51:37.802Z,4.27
2019-01-05T07:54:18.087Z,4.32
2019-01-05T07:55:16.722Z,4.23
2019-01-05T07:57:39.498Z,4.24
2019-01-05T07:58:38.042Z,4.2
2019-01-05T07:59:36.642Z,4.24
2019-01-05T08:01:52.678Z,4.37
2019-01-05T08:02:51.232Z,4.36
2019-01-05T08:03:49.871Z,4.37
2019-01-05T08:04:48.432Z,4.44
2019-01-05T08:05:47.263Z,4.41
2019-01-05T08:06:45.805Z,4.36
2019-01-05T08:07:44.587Z,4.42
2019-01-05T08:08:43.242Z,4.45
2019-01-05T08:09:41.820Z,4.44
2019-01-05T08:10:40.391Z,4.51
2019-01-05T08:11:39.284Z,4.47
2019-01-05T08:12:37.834Z,4.52
2019-01-05T08:13:36.628Z,4.48
2019-01-05T08:14:35.423Z,4.66
2019-01-05T08:15:33.961Z,4.52
2019-01-05T08:18:18.861Z,4.59
2019-01-05T08:19:17.456Z,4.62
2019-01-05T08:20:16.014Z,4.58
2019-01-05T08:25:40.450Z,4.52
2019-01-05T08:27:25.222Z,4.6
2019-01-05T08:28:23.820Z,4.55
2019-01-05T08:29:22.679Z,4.59
2019-01-05T08:30:21.291Z,4.54
2019-01-05T08:31:19.827Z,4.51
2019-01-05T08:32:18.382Z,4.41
2019-01-05T08:33:17.472Z,4.54
2019-01-05T08:34:15.999Z,4.37
2019-01-05T08:35:14.900Z,4.37
2019-01-05T08:38:53.540Z,4.48
2019-01-05T08:39:52.040Z,4.51
2019-01-05T08:40:50.893Z,4.58
2019-01-05T08:41:49.730Z,4.63
2019-01-05T08:42:48.348Z,4.58
2019-01-05T08:43:47.013Z,4.66
2019-01-05T08:44:45.556Z,4.63
2019-01-05T08:45:44.881Z,4.58
2019-01-05T08:46:43.488Z,4.47
2019-01-05T08:47:42.358Z,4.5
2019-01-05T08:48:41.223Z,4.52
2019-01-05T08:49:39.765Z,4.63
2019-01-05T08:50:38.414Z,4.62
2019-01-05T08:53:18.452Z,4.58
2019-01-05T08:54:17.101Z,4.59
2019-01-05T08:55:16.348Z,4.47
2019-01-05T08:56:14.558Z,4.54
2019-01-05T08:57:13.256Z,4.5
2019-01-05T08:58:11.900Z,4.51
2019-01-05T08:59:10.621Z,4.47
2019-01-05T09:00:09.409Z,4.37
2019-01-05T09:01:07.968Z,4.4
2019-01-05T09:02:06.544Z,4.51
2019-01-05T09:03:05.481Z,4.51
2019-01-05T09:04:04.028Z,4.36
2019-01-05T09:05:02.725Z,4.51
2019-01-05T09:06:01.353Z,4.51
2019-01-05T09:06:59.985Z,4.48
2019-01-05T09:07:59.189Z,4.44
2019-01-05T09:08:57.953Z,4.5
2019-01-05T09:09:56.648Z,4.51
2019-01-05T09:10:55.381Z,4.5
2019-01-05T09:11:53.905Z,4.52
2019-01-05T09:12:52.641Z,4.5
2019-01-05T09:13:51.438Z,4.45
2019-01-05T09:14:49.947Z,4.62
2019-01-05T09:15:48.464Z,4.59
2019-01-05T09:16:47.309Z,4.51
2019-01-05T09:17:46.340Z,4.44
2019-01-05T09:18:45.103Z,4.37
2019-01-05T09:19:43.858Z,4.41
2019-01-05T09:20:42.448Z,4.29
2019-01-05T09:21:41.216Z,4.36
2019-01-05T09:22:39.735Z,4.5
2019-01-05T09:23:38.293Z,4.66
2019-01-05T09:24:36.968Z,4.59
2019-01-05T09:25:35.601Z,4.48
2019-01-05T09:26:34.114Z,4.54
2019-01-05T09:27:32.698Z,4.52
2019-01-05T09:28:31.259Z,4.51
2019-01-05T09:29:29.826Z,4.54
2019-01-05T09:30:28.558Z,4.45
2019-01-05T09:31:27.308Z,4.51
2019-01-05T09:32:25.876Z,4.5
2019-01-05T09:33:24.499Z,4.52
2019-01-05T09:34:23.244Z,4.65
2019-01-05T09:35:22.505Z,4.58
2019-01-05T09:36:20.607Z,4.51
2019-01-05T09:37:19.375Z,4.48
2019-01-05T09:38:17.903Z,4.42
2019-01-05T09:39:16.567Z,4.63
2019-01-05T09:40:15.316Z,4.5
2019-01-05T09:41:13.867Z,4.58
2019-01-05T09:42:12.466Z,4.52
2019-01-05T09:43:11.196Z,4.52
2019-01-05T09:44:09.896Z,4.66
2019-01-05T09:45:08.572Z,4.69
2019-01-05T09:46:07.362Z,4.6
2019-01-05T09:47:05.903Z,4.6
2019-01-05T09:48:04.475Z,4.6
2019-01-05T09:49:03.672Z,4.59
2019-01-05T09:50:02.347Z,4.65
2019-01-05T09:51:00.937Z,4.72
2019-01-05T09:51:59.602Z,4.65
2019-01-05T09:52:58.187Z,4.63
2019-01-05T09:53:57.237Z,4.75
2019-01-05T09:54:55.778Z,4.7
2019-01-05T09:55:54.330Z,4.69
2019-01-05T09:56:53.390Z,4.75
2019-01-05T09:57:51.966Z,4.73
2019-01-05T09:58:51.287Z,4.73
2019-01-05T09:59:49.819Z,4.7
2019-01-05T10:00:48.373Z,4.72
2019-01-05T10:01:47.220Z,4.67
2019-01-05T10:02:45.862Z,4.66
2019-01-05T10:03:44.430Z,4.62
2019-01-05T10:04:43.088Z,4.54
2019-01-05T10:05:41.617Z,4.5
2019-01-05T10:06:40.308Z,4.65
2019-01-05T10:07:39.018Z,4.47
2019-01-05T10:08:37.769Z,4.48
2019-01-05T10:09:36.475Z,4.5
2019-01-05T10:10:35.207Z,4.65
2019-01-05T10:11:33.741Z,4.72
2019-01-05T10:12:32.322Z,4.82
2019-01-05T10:13:31.038Z,4.66
2019-01-05T10:14:29.872Z,4.72
2019-01-05T10:15:28.541Z,4.73
2019-01-05T10:16:27.249Z,4.65
2019-01-05T10:17:25.877Z,4.66
2019-01-05T10:18:24.623Z,4.78
2019-01-05T10:19:23.378Z,4.7
2019-01-05T10:20:21.904Z,4.7
2019-01-05T10:21:20.658Z,4.85
2019-01-05T10:22:19.433Z,5
2019-01-05T10:23:17.974Z,5.03
2019-01-05T10:24:16.619Z,5
2019-01-05T10:25:15.261Z,5.02
2019-01-05T10:26:13.858Z,4.97
2019-01-05T10:27:12.738Z,4.91
2019-01-05T10:28:11.417Z,4.94
2019-01-05T10:29:09.954Z,4.78
2019-01-05T10:30:08.455Z,4.86
2019-01-05T10:31:07.023Z,5.03
2019-01-05T10:32:05.576Z,4.73
2019-01-05T10:33:04.143Z,4.8
2019-01-05T10:34:02.686Z,4.69
2019-01-05T10:35:01.293Z,4.97
2019-01-05T10:35:59.808Z,6.15
2019-01-05T10:36:58.465Z,7.15
2019-01-05T10:37:57.232Z,7.64
2019-01-05T10:38:56.031Z,7.5
2019-01-05T10:39:54.605Z,7.42
2019-01-05T10:40:53.172Z,6.46
2019-01-05T10:41:51.714Z,5.82
2019-01-05T10:42:50.241Z,5.56
2019-01-05T10:43:48.769Z,5.13
2019-01-05T10:44:47.338Z,4.99
2019-01-05T10:45:46.682Z,5.07
2019-01-05T10:46:45.321Z,4.99
2019-01-05T10:49:25.433Z,5.09
2019-01-05T10:50:23.959Z,6.04
2019-01-05T10:51:22.709Z,6.18
2019-01-05T10:52:21.410Z,6.84
2019-01-05T10:53:19.907Z,6.52
2019-01-05T10:54:18.588Z,5.82
2019-01-05T10:55:17.385Z,5.28
2019-01-05T10:56:15.918Z,5.24
2019-01-05T10:57:14.512Z,5.03
2019-01-05T10:59:55.160Z,4.99
2019-01-05T11:00:53.703Z,5
2019-01-05T11:01:52.275Z,5.02
2019-01-05T11:02:50.900Z,5.3
2019-01-05T11:03:49.481Z,5.36
2019-01-05T11:04:48.176Z,5.25
2019-01-05T11:05:47.204Z,5.24
2019-01-05T11:06:46.633Z,5.18
2019-01-05T11:07:45.293Z,5.24
2019-01-05T11:08:43.887Z,5.15
2019-01-05T11:09:42.503Z,5.72
2019-01-05T11:10:40.993Z,6.44
2019-01-05T11:11:39.729Z,6.62
2019-01-05T11:12:38.236Z,7.12
2019-01-05T11:13:37.369Z,7.42
2019-01-05T11:14:35.908Z,6.4
2019-01-05T11:15:34.693Z,5.83
2019-01-05T11:17:36.066Z,5.53
2019-01-05T11:18:34.730Z,5.75
2019-01-05T11:19:33.398Z,5.6
2019-01-05T11:22:13.595Z,6.12
2019-01-05T11:23:12.096Z,6.43
2019-01-05T11:24:10.747Z,6.34
2019-01-05T11:25:09.461Z,6.48
2019-01-05T11:26:08.047Z,6.36
2019-01-05T11:27:06.786Z,5.9
2019-01-05T11:28:05.449Z,5.61
2019-01-05T11:29:04.022Z,5.38
2019-01-05T11:30:02.552Z,5.49
2019-01-05T11:38:27.072Z,5.49
2019-01-05T11:41:07.251Z,5.25
2019-01-05T11:42:05.906Z,5.12
2019-01-05T11:43:04.481Z,5.04
2019-01-05T11:44:03.152Z,5.07
2019-01-05T11:45:02.727Z,5.07
2019-01-05T11:46:01.235Z,5.21
2019-01-05T11:46:59.847Z,5.25
2019-01-05T11:47:59.149Z,5.31
2019-01-05T11:48:57.698Z,5.22
2019-01-05T11:49:56.241Z,5.35
2019-01-05T11:50:54.811Z,5.18
2019-01-05T11:51:53.364Z,5.2
2019-01-05T11:52:51.933Z,5.25
2019-01-05T11:53:50.937Z,5.2
2019-01-05T11:54:49.597Z,5.28
2019-01-05T11:55:48.155Z,5.33
2019-01-05T11:56:46.851Z,5.17
2019-01-05T11:57:45.370Z,5.31
2019-01-05T11:58:43.965Z,5.27
2019-01-05T11:59:42.519Z,5.2
2019-01-05T12:00:41.044Z,5.24
2019-01-05T12:01:39.559Z,5.3
2019-01-05T12:02:38.175Z,5.22
2019-01-05T12:03:36.954Z,5.25
2019-01-05T12:04:35.622Z,5.2
2019-01-05T12:05:34.171Z,5.39
2019-01-05T12:06:32.876Z,5.35
2019-01-05T12:07:31.563Z,5.35
2019-01-05T12:08:30.104Z,5.42
2019-01-05T12:09:28.672Z,5.39
2019-01-05T12:10:27.205Z,5.42
2019-01-05T12:11:25.742Z,5.48
2019-01-05T12:12:25.152Z,5.3
2019-01-05T12:13:23.040Z,5.39
2019-01-05T12:14:21.715Z,5.31
2019-01-05T12:15:20.447Z,5.39
2019-01-05T12:16:19.110Z,5.49
2019-01-05T12:17:17.713Z,5.51
2019-01-05T12:18:16.485Z,5.49
2019-01-05T12:19:15.083Z,5.54
2019-01-05T12:20:13.822Z,5.54
2019-01-05T12:21:12.359Z,5.49
2019-01-05T12:22:11.021Z,5.39
2019-01-05T12:23:10.154Z,5.36
2019-01-05T12:57:52.336Z,5.33
2019-01-05T12:58:51.323Z,5.3
2019-01-05T12:59:49.867Z,5.2
2019-01-05T13:00:48.462Z,5.38
2019-01-05T13:01:47.100Z,5.27
2019-01-05T13:02:46.052Z,5.38
2019-01-05T13:03:46.605Z,5.45
2019-01-05T13:04:47.356Z,5.42
2019-01-05T13:05:45.911Z,5.51
2019-01-05T13:06:44.486Z,5.51
2019-01-05T13:07:43.218Z,5.49
2019-01-05T13:13:13.607Z,5.76
2019-01-05T13:16:38.696Z,5.74
2019-01-05T13:17:37.551Z,5.76
2019-01-05T13:18:36.115Z,5.79
2019-01-05T13:20:45.522Z,5.83
2019-01-05T13:21:46.157Z,5.82
2019-01-05T13:24:37.021Z,5.81
2019-01-05T13:25:35.564Z,5.86
2019-01-05T13:28:16.025Z,5.9
2019-01-05T13:37:16.283Z,5.86
2019-01-05T13:38:19.077Z,5.75
2019-01-05T13:39:17.648Z,5.85
2019-01-05T13:45:45.221Z,6.17
2019-01-05T13:46:43.771Z,6.12
2019-01-05T13:47:42.509Z,6.12
2019-01-05T13:48:41.295Z,6.11
2019-01-05T13:49:39.873Z,6.12
2019-01-05T13:50:38.626Z,6.01
2019-01-05T13:51:37.424Z,5.9
2019-01-05T13:52:36.020Z,5.9
2019-01-05T13:54:51.476Z,6.06
2019-01-05T13:55:50.002Z,6
2019-01-05T13:56:48.531Z,6.03
2019-01-05T13:57:47.060Z,6.11
2019-01-05T14:00:21.811Z,6.12
2019-01-05T14:01:20.405Z,5.97
2019-01-05T14:02:19.149Z,5.86
2019-01-05T14:03:17.955Z,5.93
2019-01-05T14:04:16.593Z,5.93
2019-01-05T14:05:15.428Z,5.82
2019-01-05T14:06:13.986Z,5.85
2019-01-05T14:07:12.557Z,5.82
2019-01-05T14:08:11.384Z,5.81
2019-01-05T14:09:10.000Z,5.9
2019-01-05T14:10:08.672Z,5.76
2019-01-05T14:11:07.441Z,5.83
2019-01-05T14:12:06.021Z,5.89
2019-01-05T14:13:04.707Z,5.99
2019-01-05T14:14:03.369Z,6
2019-01-05T14:15:02.243Z,6.08
2019-01-05T14:16:01.107Z,6.04
2019-01-05T14:16:59.708Z,6.08
2019-01-05T14:19:40.279Z,6.21
2019-01-05T14:20:39.060Z,6.28
2019-01-05T14:21:37.627Z,6.12
2019-01-05T14:22:36.299Z,6.14
2019-01-05T14:23:34.874Z,6.22
2019-01-05T14:24:33.438Z,6.21
2019-01-05T14:25:32.014Z,6.22
2019-01-05T14:26:30.710Z,6.08
2019-01-05T14:27:29.521Z,6.25
2019-01-05T14:28:28.073Z,6.25
2019-01-05T14:29:26.747Z,6.25
2019-01-05T14:30:25.480Z,6.18
2019-01-05T14:31:24.040Z,6.11
2019-01-05T14:32:22.591Z,6.15
2019-01-05T14:33:21.127Z,6.17
2019-01-05T14:34:19.845Z,6.3
2019-01-05T14:35:18.627Z,6.28
2019-01-05T14:36:17.373Z,6.31
2019-01-05T14:37:15.925Z,6.3
2019-01-05T14:38:14.471Z,6.31
2019-01-05T14:39:13.057Z,6.31
2019-01-05T14:40:11.642Z,6.28
2019-01-05T14:41:10.221Z,6.31
2019-01-05T14:42:08.897Z,6.21
2019-01-05T14:43:07.582Z,6.28
2019-01-05T14:44:06.140Z,6.15
2019-01-05T14:45:05.005Z,6.18
2019-01-05T14:46:03.693Z,6.12
2019-01-05T14:47:02.264Z,6.09
2019-01-05T14:48:00.786Z,6
2019-01-05T14:48:59.452Z,5.97
2019-01-05T14:49:58.677Z,5.91
2019-01-05T14:50:57.313Z,5.99
2019-01-05T14:51:55.859Z,6
2019-01-05T14:52:54.423Z,5.96
2019-01-05T14:53:53.106Z,5.91
2019-01-05T14:54:51.698Z,5.9
2019-01-05T14:55:50.272Z,5.9
2019-01-05T14:56:49.246Z,5.99
2019-01-05T14:57:48.002Z,6